Time;durP1;ratioP1;P1;durP2;ratioP2;P2;SDS_P1;SDS_P2;PMS_P1;PMS_P2;Temp;Humidity;BMP_temperature;BMP_pressure;BME280_temperature;BME280_humidity;BME280_pressure;Samples;Min_cycle;Max_cycle;Signal;HPM_P1;HPM_P2
2021/11/16 00:00:54;;;;;;;;;;;;;;;5.80;93.24;101642.41;1652042;85;20633;-79
2021/11/16 00:03:20;;;;;;;;;;;;;;;5.81;92.92;101648.88;1648366;86;20137;-79
2021/11/16 00:05:46;;;;;;;;;;;;;;;5.84;92.63;101653.95;1646385;85;20204;-79
2021/11/16 00:08:11;;;;;;;;;;;;;;;5.85;92.56;101652.16;1650752;86;21203;-80
2021/11/16 00:10:37;;;;;;;;;;;;;;;5.84;92.54;101651.77;1647412;86;20147;-79
2021/11/16 00:13:04;;;;;;;;;;;;;;;5.87;92.54;101641.11;1647655;85;20176;-80
2021/11/16 00:15:29;;;;;;;;;;;;;;;5.89;92.50;101637.95;1642404;86;20228;-79
2021/11/16 00:17:55;;;;;;;;;;;;;;;5.91;92.30;101634.77;1634281;86;20159;-80
2021/11/16 00:20:22;;;;;;;;;;;;;;;5.92;92.33;101625.50;1631138;86;22962;-79
2021/11/16 00:22:47;;;;;;;;;;;;;;;5.93;92.21;101638.13;1633815;86;20290;-78
2021/11/16 00:27:42;;;;;;;;;;;;;;;5.97;92.31;101628.36;1632007;86;20182;-78
2021/11/16 00:30:08;;;;;;;;;;;;;;;5.91;92.44;101622.97;1630582;86;20204;-79
2021/11/16 00:32:33;;;;;;;;;;;;;;;5.99;92.35;101626.01;1629770;86;21364;-78
2021/11/16 00:34:59;;;;;;;;;;;;;;;6.00;92.33;101621.62;1626426;86;20232;-79
2021/11/16 00:37:26;;;;;;;;;;;;;;;5.94;92.34;101614.92;1633672;86;20210;-79
2021/11/16 00:39:54;;;;;;;;;;;;;;;5.96;92.35;101606.48;1634969;86;20132;-79
2021/11/16 00:42:19;;;;;;;;;;;;;;;6.01;92.27;101597.94;1631920;86;20196;-79
2021/11/16 00:44:45;;;;;;;;;;;;;;;6.02;92.21;101599.61;1631832;86;21094;-79
2021/11/16 00:47:10;;;;;;;;;;;;;;;5.95;92.28;101594.34;1626023;87;20503;-78
2021/11/16 00:49:36;;;;;;;;;;;;;;;5.98;92.19;101596.81;1634089;86;20471;-78
2021/11/16 00:52:02;;;;;;;;;;;;;;;5.94;92.22;101596.09;1630668;87;20138;-79
2021/11/16 00:54:28;;;;;;;;;;;;;;;5.97;92.34;101601.66;1631868;86;20527;-78
2021/11/16 00:56:54;;;;;;;;;;;;;;;5.86;92.36;101590.94;1631951;86;21037;-78
2021/11/16 00:59:19;;;;;;;;;;;;;;;5.68;92.87;101599.39;1626191;86;20245;-79
2021/11/16 01:01:45;;;;;;;;;;;;;;;5.66;93.37;101598.17;1632892;87;20134;-79
2021/11/16 01:04:14;;;;;;;;;;;;;;;5.65;93.51;101596.48;1634837;86;20176;-79
2021/11/16 01:06:39;;;;;;;;;;;;;;;5.70;93.36;101589.66;1629558;86;20130;-78
2021/11/16 01:09:05;;;;;;;;;;;;;;;5.65;93.34;101567.65;1630319;86;21154;-78
2021/11/16 01:11:30;;;;;;;;;;;;;;;5.79;93.18;101589.60;1627878;86;21027;-78
2021/11/16 01:13:56;;;;;;;;;;;;;;;5.82;92.99;101586.80;1626783;87;20148;-78
2021/11/16 01:16:22;;;;;;;;;;;;;;;5.72;93.31;101587.81;1646499;85;20902;-79
2021/11/16 01:18:48;;;;;;;;;;;;;;;5.81;93.34;101590.34;1656490;85;20147;-79
2021/11/16 01:21:13;;;;;;;;;;;;;;;5.83;93.18;101590.64;1660317;85;21209;-79
2021/11/16 01:23:39;;;;;;;;;;;;;;;5.87;92.98;101587.36;1658223;86;20339;-79
2021/11/16 01:26:05;;;;;;;;;;;;;;;5.92;92.83;101580.92;1652016;86;20141;-79
2021/11/16 01:28:31;;;;;;;;;;;;;;;5.84;92.76;101580.99;1655648;85;20175;-79
2021/11/16 01:31:00;;;;;;;;;;;;;;;5.84;92.95;101575.75;1656388;85;20624;-79
2021/11/16 01:33:29;;;;;;;;;;;;;;;5.86;93.11;101580.45;1653944;85;20150;-79
2021/11/16 01:35:55;;;;;;;;;;;;;;;5.82;93.62;101567.14;1658782;85;20123;-79
2021/11/16 01:38:23;;;;;;;;;;;;;;;5.86;93.36;101560.80;1651824;86;20182;-79
2021/11/16 01:40:49;;;;;;;;;;;;;;;5.82;93.65;101557.97;1655960;85;20377;-79
2021/11/16 01:43:15;;;;;;;;;;;;;;;5.85;93.63;101553.85;1653994;86;20481;-79
2021/11/16 01:45:41;;;;;;;;;;;;;;;5.90;93.62;101558.34;1653231;85;21110;-79
2021/11/16 01:48:07;;;;;;;;;;;;;;;5.91;93.38;101553.48;1652812;85;20182;-79
2021/11/16 01:50:33;;;;;;;;;;;;;;;5.98;93.25;101541.75;1656079;85;20198;-79
2021/11/16 01:52:59;;;;;;;;;;;;;;;5.99;93.13;101546.03;1653123;86;20204;-79
2021/11/16 01:55:25;;;;;;;;;;;;;;;6.05;93.06;101535.17;1658152;86;20431;-78
2021/11/16 01:57:51;;;;;;;;;;;;;;;6.06;92.77;101532.94;1654315;86;21186;-78
2021/11/16 02:00:20;;;;;;;;;;;;;;;6.05;92.61;101532.55;1652972;86;20157;-78
2021/11/16 02:02:45;;;;;;;;;;;;;;;6.06;92.65;101530.31;1657195;85;20141;-79
2021/11/16 02:05:11;;;;;;;;;;;;;;;6.10;92.67;101521.30;1654474;86;20458;-79
2021/11/16 02:07:37;;;;;;;;;;;;;;;6.14;92.47;101521.12;1655202;85;20150;-79
2021/11/16 02:10:04;;;;;;;;;;;;;;;6.17;92.41;101524.87;1652735;85;21186;-79
2021/11/16 02:12:29;;;;;;;;;;;;;;;6.22;92.17;101521.52;1655697;85;21133;-78
2021/11/16 02:14:55;;;;;;;;;;;;;;;6.22;92.19;101518.89;1655105;85;20139;-78
2021/11/16 02:17:20;;;;;;;;;;;;;;;6.21;92.28;101509.33;1638970;86;20173;-78
2021/11/16 02:19:46;;;;;;;;;;;;;;;6.21;91.98;101506.70;1632360;86;20142;-78
2021/11/16 02:22:12;;;;;;;;;;;;;;;6.23;92.14;101502.20;1639624;86;21132;-78
2021/11/16 02:24:38;;;;;;;;;;;;;;;6.19;92.23;101500.72;1635538;86;20178;-77
2021/11/16 02:27:04;;;;;;;;;;;;;;;6.22;92.29;101497.91;1635346;86;20118;-78
2021/11/16 02:29:29;;;;;;;;;;;;;;;6.17;92.39;101500.81;1636760;86;20175;-79
2021/11/16 02:31:55;;;;;;;;;;;;;;;6.16;92.55;101494.35;1635828;87;20149;-79
2021/11/16 02:34:22;;;;;;;;;;;;;;;6.16;92.73;101495.66;1634783;87;21121;-79
2021/11/16 02:36:47;;;;;;;;;;;;;;;6.08;92.96;101496.96;1634307;87;20137;-79
2021/11/16 02:39:15;;;;;;;;;;;;;;;6.14;93.13;101489.65;1633019;87;20166;-78
2021/11/16 02:41:40;;;;;;;;;;;;;;;6.08;93.22;101491.72;1634803;86;20226;-79
2021/11/16 02:44:06;;;;;;;;;;;;;;;6.13;93.12;101478.80;1629963;87;20177;-79
2021/11/16 02:46:33;;;;;;;;;;;;;;;6.18;93.21;101492.47;1637954;86;21095;-80
2021/11/16 02:48:58;;;;;;;;;;;;;;;6.18;93.27;101483.29;1630521;86;20186;-78
2021/11/16 02:51:24;;;;;;;;;;;;;;;6.22;93.24;101479.55;1635276;87;20508;-78
2021/11/16 02:53:50;;;;;;;;;;;;;;;6.21;93.28;101485.72;1632590;86;20127;-77
2021/11/16 02:56:16;;;;;;;;;;;;;;;6.20;93.39;101473.53;1638757;86;20182;-78
2021/11/16 02:58:42;;;;;;;;;;;;;;;6.20;93.59;101480.09;1633118;86;21145;-77
2021/11/16 03:01:14;;;;;;;;;;;;;;;6.22;93.63;101482.17;1630783;86;20169;-77
2021/11/16 03:03:39;;;;;;;;;;;;;;;6.22;93.50;101476.92;1631006;86;20185;-78
2021/11/16 03:06:05;;;;;;;;;;;;;;;6.26;93.39;101474.47;1632814;86;20278;-78
2021/11/16 03:08:31;;;;;;;;;;;;;;;6.25;93.54;101470.17;1636815;87;20451;-78
2021/11/16 03:10:58;;;;;;;;;;;;;;;6.26;93.24;101468.77;1635364;86;21079;-79
2021/11/16 03:13:25;;;;;;;;;;;;;;;6.24;93.29;101461.92;1627908;87;20225;-79
2021/11/16 03:15:51;;;;;;;;;;;;;;;6.26;93.39;101465.28;1635250;86;20140;-79
2021/11/16 03:18:16;;;;;;;;;;;;;;;6.31;93.42;101456.68;1647337;85;20207;-79
2021/11/16 03:20:44;;;;;;;;;;;;;;;6.33;93.13;101453.48;1652298;86;20496;-79
2021/11/16 03:23:18;;;;;;;;;;;;;;;6.34;93.25;101453.86;1647264;86;21190;-79
2021/11/16 03:25:51;;;;;;;;;;;;;;;6.38;93.04;101456.65;1647310;86;20141;-79
2021/11/16 03:28:12;;;;;;;;;;;;;;;6.39;93.14;101460.97;1640198;85;20158;-79
2021/11/16 03:30:38;;;;;;;;;;;;;;;6.39;93.09;101458.34;1653223;86;20806;-79
2021/11/16 03:33:04;;;;;;;;;;;;;;;6.43;92.94;101459.84;1648795;86;20168;-78
2021/11/16 03:35:30;;;;;;;;;;;;;;;6.44;93.10;101454.12;1644659;85;21171;-79
2021/11/16 03:37:58;;;;;;;;;;;;;;;6.53;93.12;101452.70;1649335;86;20518;-80
2021/11/16 03:40:23;;;;;;;;;;;;;;;6.55;92.69;101446.87;1641227;85;20345;-79
2021/11/16 03:42:50;;;;;;;;;;;;;;;6.61;92.76;101444.69;1653411;85;20165;-79
2021/11/16 03:45:16;;;;;;;;;;;;;;;6.64;92.54;101447.60;1646717;85;20509;-79
2021/11/16 03:47:42;;;;;;;;;;;;;;;6.66;92.42;101450.95;1645878;85;21111;-79
2021/11/16 03:50:11;;;;;;;;;;;;;;;6.75;92.07;101439.86;1653504;85;20213;-79
2021/11/16 03:52:40;;;;;;;;;;;;;;;6.79;91.83;101445.75;1646469;86;20494;-79
2021/11/16 03:55:04;;;;;;;;;;;;;;;6.82;91.75;101439.84;1641999;85;20166;-79
2021/11/16 03:57:30;;;;;;;;;;;;;;;6.80;91.66;101446.96;1649812;86;20210;-79
2021/11/16 03:59:56;;;;;;;;;;;;;;;6.82;91.58;101443.78;1637753;86;21082;-79
2021/11/16 04:02:21;;;;;;;;;;;;;;;6.82;91.56;101437.22;1649583;86;20675;-79
2021/11/16 04:04:52;;;;;;;;;;;;;;;6.76;91.58;101441.56;1640537;86;20149;-79
2021/11/16 04:07:14;;;;;;;;;;;;;;;6.75;91.83;101444.28;1644018;86;20512;-79
2021/11/16 04:09:42;;;;;;;;;;;;;;;6.76;91.74;101444.19;1650632;86;20168;-79
2021/11/16 04:12:08;;;;;;;;;;;;;;;6.79;91.85;101441.36;1645445;86;20138;-79
2021/11/16 04:14:33;;;;;;;;;;;;;;;6.77;91.96;101439.28;1646073;85;20407;-79
2021/11/16 04:16:59;;;;;;;;;;;;;;;6.83;91.83;101441.52;1638329;86;20155;-79
2021/11/16 04:19:24;;;;;;;;;;;;;;;6.80;91.93;101444.82;1630683;87;20463;-79
2021/11/16 04:21:50;;;;;;;;;;;;;;;6.78;92.11;101434.41;1637917;86;20171;-79
2021/11/16 04:24:16;;;;;;;;;;;;;;;6.77;92.36;101436.66;1634067;86;20603;-79
2021/11/16 04:26:41;;;;;;;;;;;;;;;6.78;92.26;101437.05;1636485;87;20624;-79
2021/11/16 04:29:07;;;;;;;;;;;;;;;6.79;92.33;101437.42;1638218;86;20158;-79
2021/11/16 04:31:33;;;;;;;;;;;;;;;6.79;92.46;101438.73;1632803;87;20811;-79
2021/11/16 04:34:04;;;;;;;;;;;;;;;6.82;92.45;101441.61;1632271;86;20213;-79
2021/11/16 04:36:29;;;;;;;;;;;;;;;6.78;92.64;101438.84;1640011;86;22171;-78
2021/11/16 04:38:55;;;;;;;;;;;;;;;6.80;92.74;101431.69;1640069;86;20147;-79
2021/11/16 04:41:21;;;;;;;;;;;;;;;6.83;92.68;101434.95;1635039;86;20678;-79
2021/11/16 04:43:46;;;;;;;;;;;;;;;6.83;92.73;101423.13;1638748;87;20897;-79
2021/11/16 04:46:17;;;;;;;;;;;;;;;6.87;92.67;101425.55;1634272;86;20233;-79
2021/11/16 04:48:55;;;;;;;;;;;;;;;6.88;92.68;101424.63;1634501;86;20175;-79
2021/11/16 05:04:32;;;;;;;;;;;;;;;7.01;92.64;101437.33;1634273;86;20330;-78
2021/11/16 05:06:58;;;;;;;;;;;;;;;7.05;92.48;101440.11;1638103;86;20149;-78
2021/11/16 05:09:23;;;;;;;;;;;;;;;7.00;92.40;101447.45;1635911;87;20612;-77
2021/11/16 05:11:49;;;;;;;;;;;;;;;7.00;92.65;101436.95;1635126;86;20138;-78
2021/11/16 05:14:15;;;;;;;;;;;;;;;7.04;92.77;101435.81;1632474;86;21182;-77
2021/11/16 05:16:40;;;;;;;;;;;;;;;6.99;92.80;101439.20;1633539;86;20257;-77
2021/11/16 05:19:06;;;;;;;;;;;;;;;6.98;93.05;101440.16;1648354;86;20196;-77
2021/11/16 05:21:32;;;;;;;;;;;;;;;7.03;92.85;101442.48;1649348;86;20169;-76
2021/11/16 05:23:58;;;;;;;;;;;;;;;7.06;92.93;101436.55;1642830;86;20187;-78
2021/11/16 05:26:26;;;;;;;;;;;;;;;7.10;92.73;101441.11;1646844;85;21890;-77
2021/11/16 05:28:54;;;;;;;;;;;;;;;7.12;92.61;101443.19;1646180;85;20193;-77
2021/11/16 05:31:19;;;;;;;;;;;;;;;7.15;92.52;101437.25;1644317;86;20106;-77
2021/11/16 05:33:47;;;;;;;;;;;;;;;7.13;92.64;101439.16;1648860;85;20805;-78
2021/11/16 05:36:12;;;;;;;;;;;;;;;7.13;92.68;101437.84;1645105;85;20178;-78
2021/11/16 05:38:39;;;;;;;;;;;;;;;7.24;92.68;101445.45;1654137;86;21107;-79
2021/11/16 05:41:05;;;;;;;;;;;;;;;7.30;92.52;101445.05;1647896;85;20129;-78
2021/11/16 05:43:30;;;;;;;;;;;;;;;7.34;92.22;101449.16;1648965;86;20133;-79
2021/11/16 05:45:57;;;;;;;;;;;;;;;7.36;92.26;101447.27;1641919;86;20317;-79
2021/11/16 05:48:23;;;;;;;;;;;;;;;7.40;91.97;101446.13;1645646;86;20181;-79
2021/11/16 05:50:50;;;;;;;;;;;;;;;7.42;91.68;101452.11;1643842;85;21191;-78
2021/11/16 05:53:16;;;;;;;;;;;;;;;7.47;91.79;101451.34;1640266;85;20090;-81
2021/11/16 05:55:45;;;;;;;;;;;;;;;7.53;91.64;101446.95;1644274;86;20231;-79
2021/11/16 05:58:16;;;;;;;;;;;;;;;7.57;91.39;101449.38;1650536;86;21200;-81
2021/11/16 06:00:42;;;;;;;;;;;;;;;7.59;91.18;101443.56;1647773;86;20218;-79
2021/11/16 06:03:08;;;;;;;;;;;;;;;7.61;91.10;101454.80;1644951;86;21164;-79
2021/11/16 06:05:34;;;;;;;;;;;;;;;7.63;90.94;101457.70;1648342;86;20539;-81
2021/11/16 06:07:59;;;;;;;;;;;;;;;7.67;90.78;101453.07;1646755;86;20159;-79
2021/11/16 06:10:25;;;;;;;;;;;;;;;7.71;90.77;101451.92;1649154;85;20141;-78
2021/11/16 06:12:50;;;;;;;;;;;;;;;7.68;90.44;101456.91;1648919;85;20132;-79
2021/11/16 06:15:16;;;;;;;;;;;;;;;7.59;90.50;101462.80;1655128;86;21113;-78
2021/11/16 06:17:44;;;;;;;;;;;;;;;7.68;90.55;101467.42;1647635;85;20167;-79
2021/11/16 06:20:11;;;;;;;;;;;;;;;7.72;90.49;101470.67;1655587;86;20140;-82
2021/11/16 06:22:36;;;;;;;;;;;;;;;7.77;90.61;101466.41;1654961;85;20121;-82
2021/11/16 06:25:02;;;;;;;;;;;;;;;7.74;90.23;101476.69;1655762;85;20163;-81
2021/11/16 06:27:28;;;;;;;;;;;;;;;7.73;90.30;101475.00;1655513;85;21099;-79
2021/11/16 06:29:53;;;;;;;;;;;;;;;7.74;90.35;101474.06;1653496;85;20212;-80
2021/11/16 06:32:19;;;;;;;;;;;;;;;7.67;90.49;101471.48;1658600;86;20128;-81
2021/11/16 06:34:44;;;;;;;;;;;;;;;7.67;90.43;101468.84;1653232;86;20817;-83
2021/11/16 06:37:10;;;;;;;;;;;;;;;7.72;90.49;101474.63;1656950;85;20152;-80
2021/11/16 06:39:36;;;;;;;;;;;;;;;7.70;90.58;101471.27;1656488;85;21095;-80
2021/11/16 06:42:02;;;;;;;;;;;;;;;7.70;90.47;101462.06;1653392;85;20494;-77
2021/11/16 06:44:28;;;;;;;;;;;;;;;7.71;90.62;101465.07;1655949;85;20169;-79
2021/11/16 06:46:54;;;;;;;;;;;;;;;7.74;90.33;101479.33;1656361;85;20798;-78
2021/11/16 06:49:20;;;;;;;;;;;;;;;7.79;90.31;101471.13;1657240;85;20142;-77
2021/11/16 06:51:46;;;;;;;;;;;;;;;7.77;90.14;101468.59;1650776;85;21123;-79
2021/11/16 06:54:14;;;;;;;;;;;;;;;7.74;90.21;101468.80;1657140;85;20131;-79
2021/11/16 06:56:41;;;;;;;;;;;;;;;7.74;89.90;101471.44;1649984;85;20136;-79
2021/11/16 06:59:06;;;;;;;;;;;;;;;7.76;91.52;101467.39;1659972;85;20206;-79
2021/11/16 07:01:35;;;;;;;;;;;;;;;7.83;91.37;101464.23;1633168;86;20487;-79
2021/11/16 07:04:03;;;;;;;;;;;;;;;7.81;90.27;101467.41;1653207;85;20542;-81
2021/11/16 07:06:28;;;;;;;;;;;;;;;7.85;90.27;101462.81;1651683;86;20141;-79
2021/11/16 07:08:54;;;;;;;;;;;;;;;7.82;89.79;101461.22;1648682;85;20147;-79
2021/11/16 07:11:21;;;;;;;;;;;;;;;7.83;89.72;101468.17;1654618;85;20333;-79
2021/11/16 07:14:08;;;;;;;;;;;;;;;7.82;89.65;101461.22;1656996;85;20186;-80
2021/11/16 07:16:43;;;;;;;;;;;;;;;7.81;89.60;101462.16;1656694;86;21202;-79
2021/11/16 07:19:10;;;;;;;;;;;;;;;7.82;89.79;101463.85;1638973;85;20324;-79
2021/11/16 07:21:51;;;;;;;;;;;;;;;7.88;89.71;101454.22;1649150;86;20181;-80
2021/11/16 07:24:21;;;;;;;;;;;;;;;7.91;89.41;101460.59;1652361;86;20165;-81
2021/11/16 07:27:01;;;;;;;;;;;;;;;7.86;89.54;101453.50;1646457;86;20205;-82
2021/11/16 07:29:40;;;;;;;;;;;;;;;7.89;89.68;101448.02;1647165;86;21581;-81
2021/11/16 07:32:07;;;;;;;;;;;;;;;7.90;89.32;101448.38;1639204;86;20117;-81
2021/11/16 07:34:34;;;;;;;;;;;;;;;7.93;89.47;101446.50;1645030;86;20209;-80
2021/11/16 07:37:03;;;;;;;;;;;;;;;7.87;89.31;101438.55;1642852;86;20208;-81
2021/11/16 07:39:29;;;;;;;;;;;;;;;7.88;89.50;101441.08;1647084;85;20185;-80
2021/11/16 07:42:05;;;;;;;;;;;;;;;7.87;89.68;101440.70;1647996;85;21816;-79
2021/11/16 07:44:31;;;;;;;;;;;;;;;7.90;89.11;101439.66;1648257;86;20131;-79
2021/11/16 07:46:57;;;;;;;;;;;;;;;7.96;89.25;101438.39;1646866;86;20208;-79
2021/11/16 07:49:23;;;;;;;;;;;;;;;8.02;88.93;101434.02;1648375;86;20113;-80
2021/11/16 07:51:50;;;;;;;;;;;;;;;8.07;88.90;101429.27;1647368;86;20193;-79
2021/11/16 07:54:21;;;;;;;;;;;;;;;8.07;88.63;101431.89;1649068;85;21201;-80
2021/11/16 07:56:46;;;;;;;;;;;;;;;8.15;88.40;101422.98;1648424;86;20153;-79
2021/11/16 07:59:12;;;;;;;;;;;;;;;8.19;88.11;101421.82;1646016;86;20141;-79
2021/11/16 08:01:45;;;;;;;;;;;;;;;8.24;87.97;101419.69;1629099;86;20149;-81
2021/11/16 08:14:45;;;;;;;;;;;;;;;8.32;87.36;101411.73;1640252;86;20201;-79
2021/11/16 08:17:10;;;;;;;;;;;;;;;8.32;87.26;101403.84;1646579;85;20161;-78
2021/11/16 08:19:38;;;;;;;;;;;;;;;8.37;87.28;101404.34;1646093;85;21151;-83
2021/11/16 08:22:07;;;;;;;;;;;;;;;8.37;87.22;101406.97;1646355;86;20232;-80
2021/11/16 08:24:34;;;;;;;;;;;;;;;8.34;87.18;101401.44;1647048;85;20150;-79
2021/11/16 08:27:01;;;;;;;;;;;;;;;8.31;87.14;101396.88;1645243;86;20185;-79
2021/11/16 08:29:32;;;;;;;;;;;;;;;8.27;87.26;101401.05;1652342;86;20305;-79
2021/11/16 08:32:07;;;;;;;;;;;;;;;8.27;87.34;101401.05;1651145;85;21162;-78
2021/11/16 08:34:32;;;;;;;;;;;;;;;8.28;87.19;101401.88;1645772;86;20181;-80
2021/11/16 08:36:57;;;;;;;;;;;;;;;8.33;87.14;101392.34;1631446;86;20534;-80
2021/11/16 08:39:39;;;;;;;;;;;;;;;8.34;87.17;101394.03;1649619;86;20141;-79
2021/11/16 08:42:22;;;;;;;;;;;;;;;8.38;87.15;101395.02;1650971;86;20205;-82
2021/11/16 08:44:55;;;;;;;;;;;;;;;8.36;86.95;101393.44;1640528;86;21177;-81
2021/11/16 08:47:26;;;;;;;;;;;;;;;8.33;87.19;101396.28;1649024;86;20171;-82
2021/11/16 08:49:51;;;;;;;;;;;;;;;8.34;87.17;101397.48;1645366;85;20150;-80
2021/11/16 08:52:17;;;;;;;;;;;;;;;8.37;87.23;101393.32;1646667;86;20210;-82
2021/11/16 08:54:55;;;;;;;;;;;;;;;8.35;87.06;101393.09;1646136;86;20182;-81
2021/11/16 08:57:20;;;;;;;;;;;;;;;8.36;87.12;101390.80;1649642;85;21736;-82
2021/11/16 08:59:46;;;;;;;;;;;;;;;8.36;87.16;101385.53;1645781;86;20232;-82
2021/11/16 09:02:12;;;;;;;;;;;;;;;8.42;87.04;101382.46;1615911;87;20779;-80
2021/11/16 09:04:40;;;;;;;;;;;;;;;8.45;86.97;101384.90;1638071;87;20206;-80
2021/11/16 09:07:28;;;;;;;;;;;;;;;8.46;86.73;101387.91;1636718;86;20246;-80
2021/11/16 09:09:54;;;;;;;;;;;;;;;8.46;86.63;101373.92;1633410;87;20178;-78
2021/11/16 09:12:20;;;;;;;;;;;;;;;8.49;86.54;101377.16;1635738;86;20189;-80
2021/11/16 09:14:53;;;;;;;;;;;;;;;8.48;86.03;101374.63;1639850;86;20181;-79
2021/11/16 09:17:18;;;;;;;;;;;;;;;8.48;86.13;101371.52;1638934;86;20200;-78
2021/11/16 09:19:44;;;;;;;;;;;;;;;8.40;85.89;101372.53;1632397;86;20142;-79
2021/11/16 09:22:16;;;;;;;;;;;;;;;8.50;86.19;101367.00;1621942;87;21177;-81
2021/11/16 09:24:44;;;;;;;;;;;;;;;8.48;86.13;101365.42;1622510;88;20174;-79
2021/11/16 09:27:21;;;;;;;;;;;;;;;8.39;85.80;101365.12;1627124;86;20214;-80
2021/11/16 09:29:38;;;;;;;;;;;;;;;8.42;85.93;101364.03;1621373;87;20124;-78
2021/11/16 09:32:13;;;;;;;;;;;;;;;8.42;86.14;101362.27;1626308;88;20226;-78
2021/11/16 09:34:40;;;;;;;;;;;;;;;8.46;85.92;101353.69;1626959;86;21074;-77
2021/11/16 09:37:15;;;;;;;;;;;;;;;8.46;85.99;101354.17;1625255;87;20151;-78
2021/11/16 09:39:50;;;;;;;;;;;;;;;8.34;85.80;101350.60;1625084;88;20958;-79
2021/11/16 09:42:29;;;;;;;;;;;;;;;8.18;86.05;101351.71;1626743;88;20134;-79
2021/11/16 09:45:04;;;;;;;;;;;;;;;8.18;86.63;101355.66;1626134;88;20182;-79
2021/11/16 09:47:34;;;;;;;;;;;;;;;8.18;86.57;101355.66;1625090;87;20141;-79
2021/11/16 09:50:02;;;;;;;;;;;;;;;8.23;86.79;101353.56;1628891;86;20206;-78
2021/11/16 09:52:40;;;;;;;;;;;;;;;8.20;86.56;101355.55;1626762;88;20161;-78
2021/11/16 09:55:10;;;;;;;;;;;;;;;8.16;86.95;101357.58;1627427;86;20129;-78
2021/11/16 09:57:39;;;;;;;;;;;;;;;8.20;86.79;101351.15;1626657;86;20181;-78
2021/11/16 10:00:08;;;;;;;;;;;;;;;8.21;86.76;101347.55;1625909;86;22042;-78
2021/11/16 10:02:34;;;;;;;;;;;;;;;8.18;86.93;101346.45;1627380;87;20119;-78
2021/11/16 10:05:03;;;;;;;;;;;;;;;8.22;86.92;101345.29;1626049;86;20134;-78
2021/11/16 10:07:28;;;;;;;;;;;;;;;8.21;86.72;101350.17;1627644;86;20233;-78
2021/11/16 10:09:54;;;;;;;;;;;;;;;8.27;86.59;101345.78;1624745;86;20818;-81
2021/11/16 10:12:24;;;;;;;;;;;;;;;8.24;86.43;101334.65;1623762;85;21108;-81
2021/11/16 10:14:48;;;;;;;;;;;;;;;8.23;86.15;101344.34;1625961;86;20305;-81
2021/11/16 10:17:13;;;;;;;;;;;;;;;8.26;86.08;101340.17;1641294;87;20173;-81
2021/11/16 10:19:39;;;;;;;;;;;;;;;8.27;86.01;101335.26;1638518;86;20116;-82
2021/11/16 10:22:10;;;;;;;;;;;;;;;8.26;86.01;101329.66;1638585;86;20807;-82
2021/11/16 10:24:33;;;;;;;;;;;;;;;8.29;85.81;101336.95;1629608;86;20273;-80
2021/11/16 10:27:05;;;;;;;;;;;;;;;8.29;85.95;101334.31;1633974;86;20169;-80
2021/11/16 10:29:31;;;;;;;;;;;;;;;8.32;85.86;101331.46;1630893;85;20169;-81
2021/11/16 10:31:56;;;;;;;;;;;;;;;8.35;85.93;101329.44;1635415;86;20601;-80
2021/11/16 10:34:40;;;;;;;;;;;;;;;8.38;85.91;101331.02;1632707;86;20166;-79
2021/11/16 10:37:06;;;;;;;;;;;;;;;8.38;85.79;101329.70;1641836;86;21140;-79
2021/11/16 10:39:32;;;;;;;;;;;;;;;8.34;85.61;101326.91;1637004;86;20227;-79
2021/11/16 10:41:58;;;;;;;;;;;;;;;8.37;85.81;101329.32;1640925;86;20176;-79
2021/11/16 10:44:24;;;;;;;;;;;;;;;8.32;85.56;101324.88;1637982;86;20212;-81
2021/11/16 10:46:50;;;;;;;;;;;;;;;8.25;85.85;101317.92;1634546;86;20121;-78
2021/11/16 10:49:16;;;;;;;;;;;;;;;8.31;86.06;101316.13;1636182;86;21097;-79
2021/11/16 10:51:45;;;;;;;;;;;;;;;8.14;85.65;101312.13;1608090;86;39486;-81
2021/11/16 10:54:11;;;;;;;;;;;;;;;8.21;86.00;101312.02;1637709;86;20462;-83
2021/11/16 10:56:37;;;;;;;;;;;;;;;8.26;85.95;101310.37;1634141;86;20227;-81
2021/11/16 10:59:14;;;;;;;;;;;;;;;8.23;86.00;101314.09;1633823;86;20310;-81
2021/11/16 11:01:45;;;;;;;;;;;;;;;8.23;86.00;101315.41;1644390;86;21940;-78
2021/11/16 11:04:31;;;;;;;;;;;;;;;8.23;86.23;101314.54;1636730;86;20199;-81
2021/11/16 11:07:09;;;;;;;;;;;;;;;8.31;86.26;101317.92;1642125;86;20130;-78
2021/11/16 11:09:34;;;;;;;;;;;;;;;8.31;86.09;101309.55;1636837;86;20140;-79
2021/11/16 11:12:00;;;;;;;;;;;;;;;8.35;85.85;101311.01;1644938;86;20215;-80
2021/11/16 11:14:37;;;;;;;;;;;;;;;8.36;86.03;101306.58;1640482;86;20635;-79
2021/11/16 11:17:06;;;;;;;;;;;;;;;8.37;85.96;101309.58;1635788;86;20139;-80
2021/11/16 11:19:34;;;;;;;;;;;;;;;8.43;85.96;101300.78;1629082;86;20138;-79
2021/11/16 11:22:26;;;;;;;;;;;;;;;8.48;85.80;101297.80;1637929;86;20191;-80
2021/11/16 11:24:46;;;;;;;;;;;;;;;8.49;85.32;101296.03;1627447;87;20506;-80
2021/11/16 11:27:08;;;;;;;;;;;;;;;8.47;85.37;101285.61;1631779;86;20228;-80
2021/11/16 11:29:40;;;;;;;;;;;;;;;8.56;85.48;101290.65;1637676;86;20170;-79
2021/11/16 11:32:09;;;;;;;;;;;;;;;8.60;85.14;101282.41;1634769;86;20209;-80
2021/11/16 11:34:39;;;;;;;;;;;;;;;8.50;84.79;101284.07;1635693;86;20216;-79
2021/11/16 11:37:10;;;;;;;;;;;;;;;8.53;85.09;101283.84;1640653;85;20199;-79
2021/11/16 11:39:36;;;;;;;;;;;;;;;8.56;85.04;101279.66;1589141;89;21056;-79
2021/11/16 11:42:02;;;;;;;;;;;;;;;8.59;84.46;101270.22;1644585;86;20803;-79
2021/11/16 11:44:37;;;;;;;;;;;;;;;8.53;84.43;101275.09;1640062;86;20185;-79
2021/11/16 11:46:59;;;;;;;;;;;;;;;8.52;84.67;101270.31;1640644;86;21106;-78
2021/11/16 11:49:25;;;;;;;;;;;;;;;8.56;84.52;101270.45;1650433;86;20218;-78
2021/11/16 11:51:51;;;;;;;;;;;;;;;8.63;84.60;101267.70;1644954;86;21919;-78
2021/11/16 11:54:17;;;;;;;;;;;;;;;8.62;84.49;101262.09;1642700;85;20243;-77
2021/11/16 11:56:43;;;;;;;;;;;;;;;8.66;84.46;101258.73;1646099;86;20715;-78
2021/11/16 11:59:09;;;;;;;;;;;;;;;8.75;84.45;101258.04;1644626;85;20664;-79
2021/11/16 12:01:34;;;;;;;;;;;;;;;8.79;84.18;101259.95;1651081;86;20186;-78
2021/11/16 12:04:00;;;;;;;;;;;;;;;8.77;84.26;101260.55;1645542;85;21039;-79
2021/11/16 12:06:27;;;;;;;;;;;;;;;8.80;84.29;101252.42;1642231;85;20447;-79
2021/11/16 12:08:53;;;;;;;;;;;;;;;8.79;84.17;101248.09;1646979;86;20133;-79
2021/11/16 12:11:19;;;;;;;;;;;;;;;8.81;83.99;101248.84;1647068;86;20197;-79
2021/11/16 12:13:46;;;;;;;;;;;;;;;8.85;84.14;101244.99;1645772;85;20192;-78
2021/11/16 12:16:35;;;;;;;;;;;;;;;8.82;83.80;101238.64;1642200;86;21156;-79
2021/11/16 12:19:08;;;;;;;;;;;;;;;8.77;83.90;101231.59;1639679;85;20180;-80
2021/11/16 12:21:37;;;;;;;;;;;;;;;8.81;83.96;101222.50;1623820;87;20165;-79
2021/11/16 12:24:04;;;;;;;;;;;;;;;8.77;84.02;101221.88;1623172;86;20181;-78
2021/11/16 12:26:32;;;;;;;;;;;;;;;8.80;83.79;101223.45;1622743;87;20353;-79
2021/11/16 12:29:16;;;;;;;;;;;;;;;8.85;84.02;101223.09;1624778;86;22319;-79
2021/11/16 12:31:42;;;;;;;;;;;;;;;8.79;83.90;101229.20;1623927;86;20177;-78
2021/11/16 12:34:08;;;;;;;;;;;;;;;8.82;83.95;101221.53;1624641;87;20146;-79
2021/11/16 12:36:37;;;;;;;;;;;;;;;8.84;83.82;101214.37;1625519;87;20134;-79
2021/11/16 12:39:14;;;;;;;;;;;;;;;8.86;84.02;101220.34;1625874;86;20159;-77
2021/11/16 12:41:41;;;;;;;;;;;;;;;8.86;84.03;101212.44;1624187;87;21058;-77
2021/11/16 12:44:10;;;;;;;;;;;;;;;8.91;84.08;101205.50;1621791;87;20194;-78
2021/11/16 12:46:37;;;;;;;;;;;;;;;8.88;83.82;101213.15;1619869;86;21331;-77
2021/11/16 12:49:07;;;;;;;;;;;;;;;8.88;84.01;101207.88;1630886;87;20151;-77
2021/11/16 12:51:53;;;;;;;;;;;;;;;8.90;84.02;101208.62;1630121;86;20474;-79
2021/11/16 12:54:20;;;;;;;;;;;;;;;8.87;83.95;101208.86;1623983;87;21336;-79
2021/11/16 12:56:50;;;;;;;;;;;;;;;8.91;83.85;101208.96;1627355;86;20211;-80
2021/11/16 12:59:18;;;;;;;;;;;;;;;8.93;83.78;101204.44;1621690;86;21087;-80
2021/11/16 13:01:51;;;;;;;;;;;;;;;8.95;83.77;101198.55;1629461;86;20742;-80
2021/11/16 13:04:19;;;;;;;;;;;;;;;8.97;83.90;101195.80;1625589;86;20529;-79
2021/11/16 13:07:05;;;;;;;;;;;;;;;9.00;83.73;101198.69;1625788;86;22567;-80
2021/11/16 13:09:48;;;;;;;;;;;;;;;8.96;83.84;101189.70;1628672;86;20231;-79
2021/11/16 13:12:49;;;;;;;;;;;;;;;9.01;83.85;101189.34;1627117;86;20515;-77
2021/11/16 13:15:33;;;;;;;;;;;;;;;8.93;83.69;101188.63;1621990;86;20132;-78
2021/11/16 13:18:08;;;;;;;;;;;;;;;8.93;83.98;101195.21;1622894;88;21080;-79